Terminal Aerodrome Forecast
Issued by NWS Hastings, NE

Home | Current Version | Previous Version | Text Only | Print | Product List | Glossary On
Versions: 1 2 3 4 5 6 7 8 9 10 11 12 13 14 15
000
FTUS43 KGID 142053 AAA
TAFGRI
TAF AMD
KGRI 142053Z 1421/1518 31014G20KT P6SM -SHRA OVC010
     FM142200 33014G21KT P6SM VCSH OVC020
     FM150000 34012KT P6SM OVC040
     FM150700 VRB06KT P6SM SCT050
     FM151700 23010KT P6SM FEW200=

USA.gov is the U.S. government's official web portal to all federal, state and local government web resources and services.